Time;durP1;ratioP1;P1;durP2;ratioP2;P2;SDS_P1;SDS_P2;PMS_P1;PMS_P2;Temp;Humidity;BMP_temperature;BMP_pressure;BME280_temperature;BME280_humidity;BME280_pressure;Samples;Min_cycle;Max_cycle;Signal;HPM_P1;HPM_P2
2022/03/14 00:00:17;;;;;;;14.77;10.68;;;9.70;92.00;;;;;;5071146;28;20465;-61
2022/03/14 00:02:44;;;;;;;15.73;10.70;;;9.70;92.20;;;;;;5071438;28;20681;-61
2022/03/14 00:05:14;;;;;;;14.50;11.02;;;9.70;92.40;;;;;;5071098;28;20119;-61
2022/03/14 00:07:47;;;;;;;14.13;11.00;;;9.70;92.60;;;;;;5071446;28;20111;-61
2022/03/14 00:10:16;;;;;;;13.55;10.80;;;9.60;92.60;;;;;;5075026;28;20094;-61
2022/03/14 00:12:48;;;;;;;17.35;11.35;;;9.60;93.00;;;;;;5073542;28;20040;-61
2022/03/14 00:15:16;;;;;;;15.10;11.25;;;9.60;93.10;;;;;;5075109;28;20037;-61
2022/03/14 00:17:45;;;;;;;17.88;11.32;;;9.60;93.00;;;;;;5074943;28;20475;-61
2022/03/14 00:20:13;;;;;;;14.88;11.32;;;9.50;93.30;;;;;;5075350;28;20040;-61
2022/03/14 00:22:39;;;;;;;20.67;11.13;;;9.50;93.60;;;;;;5074964;28;20045;-61
2022/03/14 00:25:06;;;;;;;15.48;11.43;;;9.50;93.60;;;;;;5074988;28;20056;-61
2022/03/14 00:27:32;;;;;;;17.45;11.15;;;9.40;93.80;;;;;;5075233;28;20115;-61
2022/03/14 00:29:57;;;;;;;14.70;10.65;;;9.50;94.20;;;;;;5074785;28;20116;-61
2022/03/14 00:32:24;;;;;;;16.05;11.63;;;9.60;94.20;;;;;;5089802;28;20057;-61
2022/03/14 00:34:49;;;;;;;15.80;10.90;;;9.60;95.20;;;;;;5074757;28;20039;-61
2022/03/14 00:37:15;;;;;;;15.35;10.68;;;9.60;94.90;;;;;;5074774;28;20044;-61
2022/03/14 00:39:41;;;;;;;16.65;11.57;;;9.70;95.50;;;;;;5074583;28;20036;-60
2022/03/14 00:42:07;;;;;;;15.98;11.60;;;9.70;95.70;;;;;;5074696;28;20052;-61
2022/03/14 00:44:33;;;;;;;16.67;11.85;;;9.70;95.90;;;;;;5074591;28;20044;-61
2022/03/14 00:46:58;;;;;;;17.15;10.98;;;9.70;96.40;;;;;;5074335;28;20059;-61
2022/03/14 00:49:24;;;;;;;18.27;10.93;;;9.70;96.40;;;;;;5074438;28;20502;-61
2022/03/14 00:51:50;;;;;;;16.02;11.20;;;9.70;97.30;;;;;;5074631;28;20470;-61
2022/03/14 00:54:16;;;;;;;13.48;11.02;;;9.70;97.70;;;;;;5074381;28;20036;-61
2022/03/14 00:56:41;;;;;;;17.33;11.27;;;9.70;98.00;;;;;;5073201;28;20391;-61
2022/03/14 00:59:07;;;;;;;15.35;10.77;;;9.70;98.20;;;;;;5073889;28;20449;-61
2022/03/14 01:01:33;;;;;;;15.20;10.77;;;9.70;98.80;;;;;;5074066;28;20052;-61
2022/03/14 01:03:59;;;;;;;19.80;11.07;;;9.60;99.50;;;;;;5074486;28;20040;-61
2022/03/14 01:06:27;;;;;;;18.55;10.75;;;9.70;99.80;;;;;;5074576;28;20036;-61
2022/03/14 01:08:53;;;;;;;15.50;10.70;;;9.70;99.90;;;;;;5074120;28;20048;-61
2022/03/14 01:11:19;;;;;;;15.10;11.02;;;9.70;99.90;;;;;;5074281;28;20078;-60
2022/03/14 01:13:44;;;;;;;13.82;10.75;;;9.70;99.90;;;;;;5073721;28;20128;-61
2022/03/14 01:16:11;;;;;;;14.82;10.80;;;9.70;99.90;;;;;;5073865;28;20032;-61
2022/03/14 01:18:37;;;;;;;14.35;9.77;;;9.70;99.90;;;;;;5073997;28;20025;-60
2022/03/14 01:21:03;;;;;;;15.32;10.45;;;9.80;99.90;;;;;;5073639;28;20052;-60
2022/03/14 01:23:29;;;;;;;12.48;10.00;;;9.80;99.90;;;;;;5073655;28;20047;-63
2022/03/14 01:25:54;;;;;;;13.43;11.02;;;9.80;99.90;;;;;;5072169;28;20551;-61
2022/03/14 01:28:20;;;;;;;15.05;11.13;;;9.80;99.90;;;;;;5073757;28;20041;-61
2022/03/14 01:30:46;;;;;;;14.98;10.50;;;9.80;99.90;;;;;;5073392;28;20048;-61
2022/03/14 01:33:12;;;;;;;13.13;10.68;;;9.80;99.90;;;;;;5073703;28;20080;-61
2022/03/14 01:35:39;;;;;;;15.45;11.10;;;9.80;99.90;;;;;;5073561;28;20394;-61
2022/03/14 01:38:05;;;;;;;16.02;11.40;;;9.80;99.90;;;;;;5073606;28;20032;-61
2022/03/14 01:40:31;;;;;;;14.48;10.77;;;9.80;99.90;;;;;;5088393;28;20084;-61
2022/03/14 01:42:57;;;;;;;16.40;10.85;;;9.80;99.90;;;;;;5073051;28;20047;-61
2022/03/14 01:45:23;;;;;;;15.38;10.40;;;9.80;99.90;;;;;;5073574;28;20044;-61
2022/03/14 01:47:49;;;;;;;13.32;11.07;;;9.80;99.90;;;;;;5073584;28;20037;-61
2022/03/14 01:50:15;;;;;;;13.38;10.35;;;9.80;99.90;;;;;;5073178;28;20041;-61
2022/03/14 01:52:42;;;;;;;12.65;9.68;;;9.90;99.90;;;;;;5073222;28;20033;-61
2022/03/14 01:55:08;;;;;;;11.60;9.43;;;9.80;99.90;;;;;;5073240;28;20532;-61
2022/03/14 01:57:35;;;;;;;14.45;10.40;;;9.80;99.90;;;;;;5072724;28;20037;-61
2022/03/14 02:00:01;;;;;;;14.80;9.60;;;9.90;99.90;;;;;;5073377;28;20090;-61
2022/03/14 02:02:27;;;;;;;13.85;9.77;;;9.90;99.90;;;;;;5073087;28;20044;-62
2022/03/14 02:04:53;;;;;;;14.20;10.75;;;9.80;99.90;;;;;;5073193;28;20075;-61
2022/03/14 02:07:20;;;;;;;14.00;10.65;;;9.80;99.90;;;;;;5072885;28;20040;-61
2022/03/14 02:09:46;;;;;;;12.63;10.43;;;9.80;99.90;;;;;;5072635;28;20544;-62
2022/03/14 02:12:12;;;;;;;13.65;10.20;;;9.70;99.90;;;;;;5072831;28;20033;-61
2022/03/14 02:14:42;;;;;;;15.70;11.18;;;9.70;99.90;;;;;;5072792;28;20036;-62
2022/03/14 02:17:18;;;;;;;16.90;10.93;;;9.70;99.90;;;;;;5072868;28;20803;-61
2022/03/14 02:19:44;;;;;;;14.43;10.35;;;9.60;99.90;;;;;;5072768;28;20053;-61
2022/03/14 02:22:13;;;;;;;15.07;10.98;;;9.60;99.90;;;;;;5072788;28;20056;-61
2022/03/14 02:24:44;;;;;;;14.02;9.65;;;9.60;99.90;;;;;;5072528;28;20040;-61
2022/03/14 02:27:11;;;;;;;12.10;10.02;;;9.60;99.90;;;;;;5072657;28;20067;-61
2022/03/14 02:29:39;;;;;;;13.90;10.07;;;9.70;99.90;;;;;;5054370;28;20098;-61
2022/03/14 02:32:05;;;;;;;12.18;10.18;;;9.70;99.90;;;;;;5070863;28;20036;-61
2022/03/14 02:34:31;;;;;;;12.45;9.80;;;9.70;99.90;;;;;;5072100;28;20048;-61
2022/03/14 02:36:57;;;;;;;11.07;8.93;;;9.70;99.90;;;;;;5072370;28;20087;-61
2022/03/14 02:39:24;;;;;;;11.70;9.85;;;9.70;99.90;;;;;;5072289;28;20482;-61
2022/03/14 02:41:50;;;;;;;12.95;9.73;;;9.80;99.90;;;;;;5072599;28;20048;-61
2022/03/14 02:44:15;;;;;;;12.35;9.45;;;9.70;99.90;;;;;;5072604;28;20036;-61
2022/03/14 02:46:42;;;;;;;13.70;9.05;;;9.80;99.90;;;;;;5072288;28;20506;-61
2022/03/14 02:49:10;;;;;;;11.43;9.30;;;9.80;99.90;;;;;;5072008;28;20044;-61
2022/03/14 02:51:40;;;;;;;11.50;9.30;;;9.80;99.90;;;;;;5072280;28;20070;-61
2022/03/14 02:54:08;;;;;;;12.65;9.23;;;9.90;99.90;;;;;;5072159;28;20041;-61
2022/03/14 02:56:35;;;;;;;16.38;8.90;;;9.90;99.90;;;;;;5072321;28;20032;-61
2022/03/14 02:59:02;;;;;;;13.77;9.30;;;9.90;99.90;;;;;;5072053;28;20047;-61
2022/03/14 03:01:27;;;;;;;11.25;9.15;;;9.90;99.90;;;;;;5072129;28;20482;-61
2022/03/14 03:03:53;;;;;;;11.23;9.48;;;9.90;99.90;;;;;;5071911;28;20048;-61
2022/03/14 03:06:22;;;;;;;11.38;8.60;;;9.90;99.90;;;;;;5070874;28;20044;-61
2022/03/14 03:08:52;;;;;;;11.07;9.18;;;9.90;99.90;;;;;;5071954;28;20433;-61
2022/03/14 03:11:19;;;;;;;10.90;8.80;;;9.90;99.90;;;;;;5072325;28;20123;-61
2022/03/14 03:13:46;;;;;;;13.23;9.25;;;9.90;99.90;;;;;;5071935;28;20502;-61
2022/03/14 03:16:16;;;;;;;10.00;8.68;;;9.90;99.90;;;;;;5071928;28;20032;-60
2022/03/14 03:18:45;;;;;;;11.55;8.73;;;9.80;99.90;;;;;;5072007;28;20040;-61
2022/03/14 03:21:11;;;;;;;9.80;8.48;;;9.80;99.90;;;;;;5071886;28;20171;-61
2022/03/14 03:23:38;;;;;;;11.52;9.00;;;9.80;99.90;;;;;;5070697;28;20032;-61
2022/03/14 03:26:07;;;;;;;11.00;8.63;;;9.80;99.90;;;;;;5071696;28;20529;-61
2022/03/14 03:28:35;;;;;;;11.57;8.45;;;9.80;99.90;;;;;;5071941;28;20573;-61
2022/03/14 03:31:13;;;;;;;13.15;8.63;;;9.80;99.90;;;;;;5071368;28;20040;-61
2022/03/14 03:33:39;;;;;;;10.65;8.32;;;9.80;99.90;;;;;;5070129;28;20106;-61
2022/03/14 03:36:07;;;;;;;11.77;8.52;;;9.80;99.90;;;;;;5071992;28;20446;-61
2022/03/14 03:38:34;;;;;;;10.52;7.68;;;9.70;99.90;;;;;;5071554;28;20102;-61
2022/03/14 03:41:00;;;;;;;12.05;8.93;;;9.70;99.90;;;;;;5071644;28;20525;-61
2022/03/14 03:43:26;;;;;;;10.50;8.15;;;9.70;99.90;;;;;;5072803;28;20080;-61
2022/03/14 03:45:51;;;;;;;10.02;6.90;;;9.70;99.90;;;;;;5075536;28;20032;-61
2022/03/14 03:48:17;;;;;;;9.20;7.80;;;9.70;99.90;;;;;;5075835;28;20048;-61
2022/03/14 03:50:44;;;;;;;9.43;7.30;;;9.70;99.90;;;;;;5075504;28;20044;-61
2022/03/14 03:53:10;;;;;;;9.27;6.80;;;9.80;99.90;;;;;;5073959;28;20076;-62
2022/03/14 03:55:35;;;;;;;8.27;7.07;;;9.80;99.90;;;;;;5075297;28;20107;-62
2022/03/14 03:58:02;;;;;;;9.57;6.38;;;9.80;99.90;;;;;;5075235;28;20413;-61
2022/03/14 04:00:27;;;;;;;7.45;6.50;;;9.80;99.90;;;;;;5074993;28;20037;-61
2022/03/14 04:02:53;;;;;;;8.73;6.65;;;9.80;99.90;;;;;;5075531;28;20037;-61
2022/03/14 04:05:20;;;;;;;9.43;6.20;;;9.80;99.90;;;;;;5075355;28;20044;-61
2022/03/14 04:07:46;;;;;;;9.75;6.00;;;9.90;99.90;;;;;;5075292;28;20047;-61
2022/03/14 04:10:12;;;;;;;10.43;6.32;;;9.90;99.90;;;;;;5075292;28;20052;-61
2022/03/14 04:12:39;;;;;;;8.02;6.07;;;9.90;99.90;;;;;;5075288;28;20479;-61
2022/03/14 04:15:07;;;;;;;7.13;5.75;;;9.90;99.90;;;;;;5075543;28;20524;-61
2022/03/14 04:17:35;;;;;;;9.30;6.50;;;9.90;99.90;;;;;;5074859;28;20044;-61
2022/03/14 04:20:03;;;;;;;8.87;6.83;;;10.00;99.90;;;;;;5074525;28;20067;-61
2022/03/14 04:22:29;;;;;;;7.53;6.10;;;9.90;99.90;;;;;;5074781;28;20040;-61
2022/03/14 04:24:54;;;;;;;7.90;5.63;;;9.90;99.90;;;;;;5074740;28;20085;-61
2022/03/14 04:27:20;;;;;;;8.95;5.40;;;9.80;99.90;;;;;;5074693;28;20051;-62
2022/03/14 04:29:46;;;;;;;6.68;5.63;;;9.90;99.90;;;;;;5074667;28;20491;-61
2022/03/14 04:32:11;;;;;;;5.75;4.70;;;9.90;99.90;;;;;;5074942;28;20033;-62
2022/03/14 04:34:37;;;;;;;5.78;4.57;;;9.90;99.90;;;;;;5074676;28;20403;-61
2022/03/14 04:37:03;;;;;;;4.72;4.30;;;9.90;99.90;;;;;;5074693;28;20048;-61
2022/03/14 04:39:29;;;;;;;6.32;4.50;;;10.00;99.90;;;;;;5074657;28;20375;-61
2022/03/14 04:41:55;;;;;;;5.55;4.50;;;10.00;99.90;;;;;;5074515;28;20036;-61
2022/03/14 04:44:21;;;;;;;4.78;4.10;;;10.00;99.90;;;;;;5074368;28;20123;-61
2022/03/14 04:46:48;;;;;;;5.85;4.35;;;10.00;99.90;;;;;;5074862;28;20116;-61
2022/03/14 04:49:14;;;;;;;5.55;4.40;;;10.00;99.90;;;;;;5074334;28;20056;-61
2022/03/14 04:51:40;;;;;;;6.57;4.28;;;10.00;99.90;;;;;;5074572;28;20055;-61
2022/03/14 04:54:06;;;;;;;5.43;4.13;;;10.00;99.90;;;;;;5073966;28;20449;-61
2022/03/14 04:56:32;;;;;;;5.55;4.50;;;10.00;99.90;;;;;;5074341;28;20036;-61
2022/03/14 04:58:58;;;;;;;4.93;4.22;;;10.00;99.90;;;;;;5074255;28;20040;-61
2022/03/14 05:01:24;;;;;;;8.48;4.68;;;10.00;99.90;;;;;;5073138;28;20045;-60
2022/03/14 05:03:52;;;;;;;5.60;3.97;;;10.00;99.90;;;;;;5074272;28;20033;-61
2022/03/14 05:06:21;;;;;;;5.97;4.10;;;9.90;99.90;;;;;;5074349;28;20564;-61
2022/03/14 05:08:47;;;;;;;5.20;4.22;;;9.90;99.90;;;;;;5074081;28;20486;-61
2022/03/14 05:11:14;;;;;;;4.50;3.80;;;9.90;99.90;;;;;;5074083;28;20036;-61
2022/03/14 05:13:41;;;;;;;3.55;3.22;;;9.90;99.90;;;;;;5072665;28;20072;-60
2022/03/14 05:16:07;;;;;;;4.60;3.75;;;10.00;99.90;;;;;;5074137;28;20045;-60
2022/03/14 05:18:34;;;;;;;4.68;3.55;;;10.00;99.90;;;;;;5074077;28;20124;-60
2022/03/14 05:21:01;;;;;;;4.32;3.65;;;10.00;99.90;;;;;;5074012;28;20048;-61
2022/03/14 05:23:28;;;;;;;4.07;3.58;;;10.00;99.90;;;;;;5072546;28;20572;-61
2022/03/14 05:25:54;;;;;;;4.20;3.50;;;10.00;99.90;;;;;;5073780;28;20093;-61
2022/03/14 05:28:20;;;;;;;5.43;3.63;;;10.00;99.90;;;;;;5073915;28;20044;-61
2022/03/14 05:30:46;;;;;;;3.88;3.33;;;10.00;99.90;;;;;;5073805;28;20394;-61
2022/03/14 05:33:11;;;;;;;4.10;3.22;;;10.00;99.90;;;;;;5073440;28;20486;-61
2022/03/14 05:35:37;;;;;;;3.85;3.45;;;10.00;99.90;;;;;;5073485;28;20048;-61
2022/03/14 05:38:03;;;;;;;4.28;3.30;;;10.00;99.90;;;;;;5073418;28;20049;-61
2022/03/14 05:40:30;;;;;;;4.82;3.45;;;10.00;99.90;;;;;;5073406;28;20391;-61
2022/03/14 05:42:56;;;;;;;4.85;3.47;;;10.00;99.90;;;;;;5072766;28;20048;-61
2022/03/14 05:45:22;;;;;;;4.43;3.40;;;10.10;99.90;;;;;;5073910;28;20044;-61
2022/03/14 05:47:48;;;;;;;4.28;3.40;;;10.00;99.90;;;;;;5073376;28;20106;-61
2022/03/14 05:50:15;;;;;;;3.97;3.58;;;10.10;99.90;;;;;;5072081;28;20049;-61
2022/03/14 05:52:41;;;;;;;3.58;3.03;;;10.00;99.90;;;;;;5073277;28;20036;-61
2022/03/14 05:55:08;;;;;;;3.90;3.30;;;10.00;99.90;;;;;;5073134;28;20045;-61
2022/03/14 05:57:34;;;;;;;3.75;3.40;;;10.00;99.90;;;;;;5073143;28;20040;-62
2022/03/14 06:00:00;;;;;;;4.22;3.50;;;10.00;99.90;;;;;;5072974;28;20040;-62
2022/03/14 06:02:26;;;;;;;4.53;3.35;;;9.90;99.90;;;;;;5072901;28;20107;-62
2022/03/14 06:04:53;;;;;;;4.95;3.35;;;9.90;99.90;;;;;;5072677;28;20040;-61
2022/03/14 06:07:21;;;;;;;3.25;2.95;;;9.90;99.90;;;;;;5071798;28;20043;-61
2022/03/14 06:09:47;;;;;;;5.00;3.65;;;9.90;99.90;;;;;;5072463;28;20094;-61
2022/03/14 06:12:24;;;;;;;4.15;3.50;;;9.80;99.90;;;;;;5072803;28;20058;-61
2022/03/14 06:14:52;;;;;;;4.82;4.05;;;9.80;99.90;;;;;;5038357;28;20102;-61
2022/03/14 06:17:19;;;;;;;4.63;3.80;;;9.80;99.90;;;;;;5071368;28;20045;-61
2022/03/14 06:19:45;;;;;;;5.20;4.35;;;9.70;99.90;;;;;;5071367;28;20056;-62
2022/03/14 06:22:10;;;;;;;4.78;4.13;;;9.70;99.90;;;;;;5072711;28;20115;-61
2022/03/14 06:24:36;;;;;;;6.03;3.90;;;9.70;99.90;;;;;;5072555;28;20197;-61
2022/03/14 06:27:02;;;;;;;8.13;4.30;;;9.70;99.90;;;;;;5088244;28;20069;-61
2022/03/14 06:29:28;;;;;;;5.28;3.97;;;9.70;99.90;;;;;;5072698;28;20032;-61
2022/03/14 06:31:54;;;;;;;5.82;4.25;;;9.70;99.90;;;;;;5072486;28;20033;-61
2022/03/14 06:34:21;;;;;;;4.63;4.00;;;9.80;99.90;;;;;;5087809;28;20407;-61
2022/03/14 06:36:47;;;;;;;4.15;3.58;;;9.70;99.90;;;;;;5072250;28;20029;-61
2022/03/14 06:39:13;;;;;;;9.98;3.50;;;9.70;99.90;;;;;;5072303;28;20043;-61
2022/03/14 06:41:39;;;;;;;4.30;3.90;;;9.70;99.90;;;;;;5072506;28;20048;-61
2022/03/14 06:44:05;;;;;;;4.55;3.88;;;9.60;99.90;;;;;;5072356;28;20040;-61
2022/03/14 06:46:31;;;;;;;3.78;3.40;;;9.70;99.90;;;;;;5072357;28;20123;-61
2022/03/14 06:48:56;;;;;;;4.82;3.83;;;9.70;99.90;;;;;;5072254;28;20123;-61
2022/03/14 06:51:24;;;;;;;4.43;4.03;;;9.70;99.90;;;;;;5072165;28;20113;-62
2022/03/14 06:53:50;;;;;;;5.47;3.63;;;9.70;99.90;;;;;;5072289;28;20441;-61
2022/03/14 06:56:16;;;;;;;4.10;3.65;;;9.70;99.90;;;;;;5072133;28;20028;-61
2022/03/14 06:58:42;;;;;;;5.32;3.92;;;9.70;99.90;;;;;;5072172;28;20494;-61
2022/03/14 07:01:08;;;;;;;5.30;4.10;;;9.70;99.90;;;;;;5072130;28;20051;-62
2022/03/14 07:03:34;;;;;;;4.13;3.70;;;9.70;99.90;;;;;;5072213;28;20040;-61
2022/03/14 07:05:59;;;;;;;5.25;4.30;;;9.70;99.90;;;;;;5071628;28;20048;-62
2022/03/14 07:08:25;;;;;;;5.85;4.25;;;9.70;99.90;;;;;;5070682;28;20044;-61
2022/03/14 07:10:51;;;;;;;4.45;3.65;;;9.70;99.90;;;;;;5071773;28;20036;-61
2022/03/14 07:13:16;;;;;;;5.18;4.10;;;9.80;99.90;;;;;;5071616;28;20386;-61
2022/03/14 07:15:42;;;;;;;5.47;4.28;;;9.70;99.90;;;;;;5072156;28;20044;-61
2022/03/14 07:18:08;;;;;;;5.32;4.05;;;9.60;99.90;;;;;;5071949;28;20497;-61
2022/03/14 07:20:34;;;;;;;4.82;3.80;;;9.60;99.90;;;;;;5071954;28;20115;-61
2022/03/14 07:23:00;;;;;;;5.15;4.38;;;9.60;99.90;;;;;;5071882;28;20391;-61
2022/03/14 07:25:39;;;;;;;5.10;4.10;;;9.60;99.90;;;;;;5072091;28;20036;-61
2022/03/14 07:28:10;;;;;;;6.70;4.40;;;9.60;99.90;;;;;;5071559;28;20036;-61
2022/03/14 07:30:38;;;;;;;4.20;3.72;;;9.60;99.90;;;;;;5071568;28;20036;-62
2022/03/14 07:33:04;;;;;;;5.18;4.20;;;9.60;99.90;;;;;;5071292;28;20553;-61
2022/03/14 07:35:31;;;;;;;5.28;4.78;;;9.60;99.90;;;;;;5072141;28;20383;-61
2022/03/14 07:37:57;;;;;;;5.20;4.70;;;9.50;99.90;;;;;;5071854;28;20068;-62
2022/03/14 07:40:23;;;;;;;5.60;4.78;;;9.60;99.90;;;;;;5071631;28;20083;-61
2022/03/14 07:42:51;;;;;;;5.05;4.40;;;9.60;99.90;;;;;;5070584;28;20040;-62
2022/03/14 07:45:20;;;;;;;5.03;4.53;;;9.60;99.90;;;;;;5071451;28;20040;-61
2022/03/14 07:47:46;;;;;;;5.72;4.60;;;9.50;99.90;;;;;;5071277;28;20047;-62
2022/03/14 07:50:15;;;;;;;6.43;4.88;;;9.50;99.90;;;;;;5071461;28;20040;-61
2022/03/14 07:52:42;;;;;;;6.50;4.90;;;9.50;99.90;;;;;;5071690;28;20421;-62
2022/03/14 07:55:09;;;;;;;9.05;5.30;;;9.50;99.90;;;;;;5071342;28;20033;-61
2022/03/14 07:57:35;;;;;;;7.25;4.85;;;9.50;99.90;;;;;;5071332;28;20029;-61
2022/03/14 08:00:02;;;;;;;6.20;4.70;;;9.50;99.90;;;;;;5071197;28;20102;-61
2022/03/14 08:02:28;;;;;;;9.45;5.35;;;9.50;99.90;;;;;;5071170;28;20040;-61
2022/03/14 08:04:54;;;;;;;4.82;4.40;;;9.50;99.90;;;;;;5071190;28;20481;-62
2022/03/14 08:07:20;;;;;;;5.35;4.72;;;9.60;99.90;;;;;;5070035;28;20037;-61
2022/03/14 08:09:48;;;;;;;5.25;4.75;;;9.50;99.90;;;;;;5071140;28;20086;-63
2022/03/14 08:12:15;;;;;;;5.63;4.80;;;9.60;99.90;;;;;;5071178;28;20048;-62
2022/03/14 08:14:40;;;;;;;6.45;4.72;;;9.60;99.90;;;;;;5071063;28;20051;-62
2022/03/14 08:17:06;;;;;;;6.10;5.03;;;9.70;99.90;;;;;;5071212;28;20032;-62
2022/03/14 08:19:33;;;;;;;6.15;5.47;;;9.60;99.90;;;;;;5070914;28;20041;-63
2022/03/14 08:21:58;;;;;;;5.70;4.88;;;9.60;99.90;;;;;;5071229;28;20423;-62
2022/03/14 08:24:24;;;;;;;7.85;6.03;;;9.60;99.90;;;;;;5070976;28;20124;-62
2022/03/14 08:26:50;;;;;;;5.18;4.68;;;9.60;99.90;;;;;;5070988;28;20486;-62
2022/03/14 08:29:16;;;;;;;5.75;5.15;;;9.60;99.90;;;;;;5072047;28;20115;-60
2022/03/14 08:31:42;;;;;;;5.93;4.68;;;9.70;99.90;;;;;;5074373;28;20040;-61
2022/03/14 08:34:08;;;;;;;6.68;5.18;;;9.60;99.90;;;;;;5074330;28;20055;-62
2022/03/14 08:36:36;;;;;;;7.50;5.50;;;9.60;99.90;;;;;;5074556;28;20115;-64
2022/03/14 08:39:04;;;;;;;7.72;5.97;;;9.70;99.90;;;;;;5074511;28;20399;-63
2022/03/14 08:41:31;;;;;;;5.53;4.93;;;9.60;99.90;;;;;;5074268;28;20040;-61
2022/03/14 08:43:57;;;;;;;6.22;5.63;;;9.60;99.90;;;;;;5074302;28;20041;-62
2022/03/14 08:46:23;;;;;;;6.43;5.38;;;9.60;99.90;;;;;;5074242;28;20097;-62
2022/03/14 08:48:49;;;;;;;6.85;5.53;;;9.60;99.90;;;;;;5074498;28;20040;-61
2022/03/14 08:51:14;;;;;;;6.57;5.07;;;9.70;99.90;;;;;;5074541;28;20048;-62
2022/03/14 08:53:40;;;;;;;8.32;5.45;;;9.70;99.90;;;;;;5074584;28;20078;-61
2022/03/14 08:56:06;;;;;;;7.68;5.47;;;9.70;99.90;;;;;;5074045;28;20418;-62
2022/03/14 08:58:32;;;;;;;7.13;5.80;;;9.80;99.90;;;;;;5074067;28;20115;-61
2022/03/14 09:00:59;;;;;;;7.32;5.75;;;9.80;99.90;;;;;;5074210;28;20047;-62
2022/03/14 09:03:26;;;;;;;6.47;5.88;;;9.70;99.90;;;;;;5074126;28;20041;-62
2022/03/14 09:05:58;;;;;;;7.95;6.30;;;9.70;99.90;;;;;;5074199;28;20095;-61
2022/03/14 09:08:25;;;;;;;6.65;5.75;;;9.80;99.90;;;;;;5074089;28;20046;-61
2022/03/14 09:10:51;;;;;;;6.65;5.75;;;9.80;99.90;;;;;;5073959;28;20040;-61
2022/03/14 09:13:18;;;;;;;6.95;6.25;;;9.90;99.90;;;;;;5072481;28;20053;-61
2022/03/14 09:15:44;;;;;;;8.20;6.22;;;9.80;99.90;;;;;;5074216;28;20063;-61
2022/03/14 09:18:09;;;;;;;8.82;5.80;;;9.80;99.90;;;;;;5073772;28;20037;-62
2022/03/14 09:20:39;;;;;;;6.40;5.80;;;9.90;99.90;;;;;;5073749;28;20036;-61
2022/03/14 09:23:06;;;;;;;6.90;6.18;;;9.90;99.90;;;;;;5073804;28;20044;-61
2022/03/14 09:25:32;;;;;;;8.52;6.40;;;9.90;99.90;;;;;;5073833;28;20036;-61
2022/03/14 09:27:59;;;;;;;8.15;7.18;;;10.00;99.90;;;;;;5073539;28;20564;-61
2022/03/14 09:30:25;;;;;;;7.28;6.57;;;10.00;99.90;;;;;;5073757;28;20063;-61
2022/03/14 09:32:52;;;;;;;8.55;6.97;;;10.00;99.90;;;;;;5072095;28;20037;-61
2022/03/14 09:35:21;;;;;;;6.63;6.03;;;10.00;99.90;;;;;;5073542;28;20044;-61
2022/03/14 09:37:49;;;;;;;6.93;6.18;;;10.00;99.90;;;;;;5073622;28;20282;-61
2022/03/14 09:40:20;;;;;;;8.10;7.30;;;10.00;99.90;;;;;;5073372;28;20055;-61
2022/03/14 09:42:52;;;;;;;7.90;7.18;;;10.00;99.90;;;;;;5073419;28;20047;-61
2022/03/14 09:45:19;;;;;;;8.75;7.85;;;10.00;99.90;;;;;;5073108;28;20076;-61
2022/03/14 09:47:51;;;;;;;7.97;7.18;;;10.10;99.90;;;;;;5073180;28;20364;-61
2022/03/14 09:50:25;;;;;;;10.13;7.30;;;10.00;99.90;;;;;;5072941;28;20044;-62
2022/03/14 09:52:52;;;;;;;10.43;8.18;;;10.10;99.90;;;;;;5073259;28;20040;-61
2022/03/14 09:55:19;;;;;;;8.40;7.60;;;10.10;99.90;;;;;;5072973;28;20044;-62
2022/03/14 09:57:45;;;;;;;9.25;8.02;;;10.10;99.90;;;;;;5072987;28;20562;-60
2022/03/14 10:00:15;;;;;;;9.75;8.75;;;10.10;99.90;;;;;;5073296;28;20084;-61
2022/03/14 10:02:43;;;;;;;11.23;9.75;;;10.00;99.90;;;;;;5072704;28;20159;-61
2022/03/14 10:05:11;;;;;;;13.88;12.23;;;10.00;99.90;;;;;;5072725;28;20036;-61
2022/03/14 10:07:39;;;;;;;21.40;14.27;;;9.90;99.90;;;;;;5072848;28;20082;-62
2022/03/14 10:10:05;;;;;;;19.88;15.38;;;9.90;99.90;;;;;;5072629;28;20044;-61
2022/03/14 10:12:32;;;;;;;19.17;14.98;;;9.80;99.90;;;;;;5072768;28;20068;-61
2022/03/14 10:15:01;;;;;;;19.20;15.57;;;9.70;99.90;;;;;;5072574;28;20032;-61
2022/03/14 10:17:27;;;;;;;21.98;16.42;;;9.60;99.90;;;;;;5072453;28;20127;-62
2022/03/14 10:20:01;;;;;;;22.38;17.70;;;9.60;99.90;;;;;;5072687;28;20195;-61
2022/03/14 10:22:39;;;;;;;22.42;16.83;;;9.60;99.90;;;;;;5072383;28;20047;-62
2022/03/14 10:25:16;;;;;;;21.27;16.67;;;9.50;99.90;;;;;;5072237;28;20514;-62
2022/03/14 10:27:45;;;;;;;23.17;17.60;;;9.50;99.90;;;;;;5072268;28;20109;-61
2022/03/14 10:30:27;;;;;;;26.27;17.48;;;9.50;99.90;;;;;;5071903;28;20076;-62
2022/03/14 10:33:08;;;;;;;33.17;18.02;;;9.60;99.90;;;;;;5072119;28;20036;-62
2022/03/14 10:35:38;;;;;;;22.83;16.60;;;9.70;99.90;;;;;;5072060;28;20074;-62
2022/03/14 10:38:07;;;;;;;20.77;12.55;;;9.70;99.90;;;;;;5072150;28;20033;-61
2022/03/14 10:40:38;;;;;;;17.92;11.90;;;9.60;99.90;;;;;;5071877;28;20561;-62
2022/03/14 10:43:22;;;;;;;20.38;12.00;;;9.70;99.90;;;;;;5071967;28;20048;-61
2022/03/14 10:45:49;;;;;;;20.58;12.68;;;9.70;99.90;;;;;;5071858;28;20036;-63
2022/03/14 10:48:15;;;;;;;17.88;11.10;;;9.80;99.90;;;;;;5071911;28;20040;-63
2022/03/14 10:50:42;;;;;;;17.92;10.55;;;9.80;99.90;;;;;;5071748;28;20087;-63
2022/03/14 10:53:12;;;;;;;18.45;10.63;;;9.80;99.90;;;;;;5071366;28;20036;-63
2022/03/14 10:55:43;;;;;;;18.10;10.60;;;9.90;99.90;;;;;;5070510;28;20043;-60
2022/03/14 10:58:10;;;;;;;19.45;10.55;;;9.80;99.90;;;;;;5070182;28;20502;-61
2022/03/14 11:00:51;;;;;;;19.85;9.10;;;9.90;99.90;;;;;;5071687;28;20052;-60
2022/03/14 11:03:31;;;;;;;23.25;9.65;;;9.80;99.90;;;;;;5071683;28;20112;-60
2022/03/14 11:06:03;;;;;;;22.42;9.32;;;9.90;99.90;;;;;;5071911;28;20386;-61
2022/03/14 11:08:43;;;;;;;21.63;10.10;;;9.90;99.90;;;;;;5071604;28;20047;-60
2022/03/14 11:11:22;;;;;;;18.20;8.80;;;10.00;99.90;;;;;;5071494;28;20040;-61
2022/03/14 11:13:50;;;;;;;17.30;9.20;;;9.90;99.90;;;;;;5071414;28;20068;-61
2022/03/14 11:16:24;;;;;;;19.40;10.25;;;9.90;99.90;;;;;;5071184;28;20032;-60
2022/03/14 11:18:51;;;;;;;20.50;9.43;;;9.90;99.90;;;;;;5071494;28;20037;-61
2022/03/14 11:21:19;;;;;;;17.75;8.65;;;9.90;99.90;;;;;;5071332;28;20052;-60
2022/03/14 11:23:48;;;;;;;17.80;8.88;;;9.90;99.90;;;;;;5071554;28;20036;-60
2022/03/14 11:26:16;;;;;;;18.67;9.43;;;10.00;99.90;;;;;;5071388;28;20055;-61
2022/03/14 11:28:46;;;;;;;17.40;9.57;;;9.90;99.90;;;;;;5071464;28;20124;-60
2022/03/14 11:31:12;;;;;;;15.48;9.30;;;10.00;99.90;;;;;;5071454;28;20098;-60
2022/03/14 11:33:38;;;;;;;22.35;10.35;;;10.00;99.90;;;;;;5071467;28;20057;-60
2022/03/14 11:36:05;;;;;;;22.27;10.30;;;10.00;99.90;;;;;;5071423;28;20047;-60
2022/03/14 11:38:31;;;;;;;18.85;9.20;;;10.00;99.90;;;;;;5071373;28;20068;-60
2022/03/14 11:40:59;;;;;;;22.10;9.20;;;10.00;99.90;;;;;;5070021;28;20521;-60
2022/03/14 11:43:25;;;;;;;18.08;8.60;;;10.10;99.90;;;;;;5071767;28;20044;-60
2022/03/14 11:45:51;;;;;;;19.83;8.25;;;10.10;99.90;;;;;;5071253;28;20502;-60
2022/03/14 11:48:18;;;;;;;17.05;7.10;;;10.10;99.90;;;;;;5071252;28;20033;-60
2022/03/14 11:50:46;;;;;;;15.35;7.90;;;10.20;99.90;;;;;;5071275;28;20041;-61
2022/03/14 11:53:29;;;;;;;15.55;7.05;;;10.20;99.90;;;;;;5071212;28;20044;-61
2022/03/14 11:56:05;;;;;;;18.35;6.53;;;10.20;99.90;;;;;;5071190;28;20039;-60
2022/03/14 11:58:34;;;;;;;15.70;5.90;;;10.20;99.90;;;;;;5071120;28;20043;-60
2022/03/14 12:01:18;;;;;;;16.40;6.65;;;10.20;99.90;;;;;;5076181;28;20048;-60
2022/03/14 12:03:51;;;;;;;15.30;6.85;;;10.20;99.90;;;;;;5086789;28;20045;-61
2022/03/14 12:06:18;;;;;;;18.63;7.93;;;10.20;99.90;;;;;;5094789;28;20058;-60
2022/03/14 12:08:43;;;;;;;21.00;8.50;;;10.20;99.90;;;;;;5095594;28;20101;-60
2022/03/14 12:11:37;;;;;;;19.98;9.10;;;10.20;99.90;;;;;;5094870;28;20044;-61
2022/03/14 12:14:04;;;;;;;17.48;8.93;;;10.20;99.90;;;;;;5093079;28;20068;-60
2022/03/14 12:16:44;;;;;;;12.43;9.25;;;10.20;99.90;;;;;;5094643;28;20039;-60
2022/03/14 12:19:29;;;;;;;;;;;10.20;99.90;;;;;;5096958;28;20032;-60
2022/03/14 12:21:55;;;;;;;15.57;9.10;;;10.20;99.90;;;;;;5096754;28;19915;-60
2022/03/14 12:24:36;;;;;;;23.25;10.45;;;10.20;99.90;;;;;;5094842;28;20040;-61
2022/03/14 12:27:13;;;;;;;21.13;10.15;;;10.20;99.90;;;;;;5092191;28;20470;-60
2022/03/14 12:29:40;;;;;;;19.63;9.73;;;10.30;99.90;;;;;;5092168;28;20040;-60
2022/03/14 12:32:28;;;;;;;22.52;10.40;;;10.30;99.90;;;;;;5094759;28;20463;-60
2022/03/14 12:35:06;;;;;;;18.02;10.55;;;10.30;99.90;;;;;;5093845;28;20060;-60
2022/03/14 12:37:35;;;;;;;21.77;11.38;;;10.40;99.90;;;;;;5092957;28;20059;-61
2022/03/14 12:40:24;;;;;;;18.88;11.13;;;10.50;99.90;;;;;;5090299;28;20118;-60
2022/03/14 12:42:52;;;;;;;23.67;11.93;;;10.50;99.90;;;;;;5008197;28;20557;-61
2022/03/14 12:45:22;;;;;;;20.70;11.25;;;10.60;99.90;;;;;;4995246;28;20054;-61
2022/03/14 12:47:54;;;;;;;24.38;11.70;;;10.70;99.90;;;;;;5012121;28;20050;-61